createdAt,value
2019-05-06T00:00:55.316Z,9.20
2019-05-06T00:03:16.836Z,8.93
2019-05-06T00:05:46.612Z,8.13
2019-05-06T00:08:17.333Z,6.63
2019-05-06T00:10:47.467Z,12.33
2019-05-06T00:13:17.823Z,8.60
2019-05-06T00:15:47.832Z,11.33
2019-05-06T00:18:17.828Z,13.70
2019-05-06T00:20:48.135Z,9.00
2019-05-06T00:23:24.950Z,7.57
2019-05-06T00:26:27.734Z,5.63
2019-05-06T00:29:00.722Z,4.00
2019-05-06T00:31:30.756Z,12.80
2019-05-06T00:34:01.288Z,13.07
2019-05-06T00:36:31.405Z,17.00
2019-05-06T00:39:11.885Z,9.93
2019-05-06T00:41:43.421Z,14.03
2019-05-06T00:44:16.697Z,14.20
2019-05-06T00:46:46.606Z,14.23
2019-05-06T00:49:16.685Z,13.77
2019-05-06T00:51:47.479Z,19.70
2019-05-06T00:54:20.849Z,9.77
2019-05-06T00:56:51.131Z,9.40
2019-05-06T00:59:21.227Z,15.37
2019-05-06T01:01:51.417Z,10.97
2019-05-06T01:04:21.302Z,10.03
2019-05-06T01:06:51.172Z,14.47
2019-05-06T01:09:23.402Z,10.63
2019-05-06T01:11:55.521Z,12.40
2019-05-06T01:14:35.175Z,15.13
2019-05-06T01:17:05.519Z,8.67
2019-05-06T01:19:37.186Z,14.17
2019-05-06T01:22:07.220Z,11.27
2019-05-06T01:24:37.334Z,11.00
2019-05-06T01:27:07.311Z,10.57
2019-05-06T01:29:37.334Z,16.03
2019-05-06T01:32:07.654Z,7.90
2019-05-06T01:34:37.619Z,19.57
2019-05-06T01:37:07.508Z,12.37
2019-05-06T01:39:46.711Z,12.53
2019-05-06T01:42:36.831Z,17.67
2019-05-06T01:45:34.883Z,7.87
2019-05-06T01:48:05.395Z,19.07
2019-05-06T01:50:35.221Z,11.37
2019-05-06T01:53:05.231Z,12.27
2019-05-06T01:55:35.236Z,16.10
2019-05-06T01:58:05.632Z,14.47
2019-05-06T02:00:35.482Z,12.77
2019-05-06T02:03:05.451Z,11.77
2019-05-06T02:05:36.201Z,11.43
2019-05-06T02:08:09.511Z,15.40
2019-05-06T02:10:40.010Z,13.43
2019-05-06T02:13:10.233Z,7.37
2019-05-06T02:15:40.036Z,13.90
2019-05-06T02:18:11.143Z,14.20
2019-05-06T02:20:44.514Z,11.20
2019-05-06T02:23:18.702Z,14.17
2019-05-06T02:25:51.353Z,14.47
2019-05-06T02:28:23.604Z,13.50
2019-05-06T02:31:14.632Z,17.30
2019-05-06T02:34:05.060Z,7.80
2019-05-06T02:37:05.959Z,11.57
2019-05-06T02:39:34.369Z,16.87
2019-05-06T02:42:05.058Z,8.63
2019-05-06T02:44:35.291Z,8.83
2019-05-06T02:47:28.267Z,17.30
2019-05-06T02:50:04.400Z,9.63
2019-05-06T02:52:33.955Z,10.90
2019-05-06T02:55:06.454Z,20.97
2019-05-06T02:57:35.725Z,18.07
2019-05-06T03:00:06.984Z,17.07
2019-05-06T03:02:43.225Z,17.83
2019-05-06T03:05:08.864Z,21.43
2019-05-06T03:07:38.823Z,19.53
2019-05-06T03:10:09.447Z,15.37
2019-05-06T03:12:39.419Z,18.43
2019-05-06T03:15:09.882Z,17.87
2019-05-06T03:17:39.803Z,11.27
2019-05-06T03:20:13.536Z,14.13
2019-05-06T03:22:59.726Z,19.77
2019-05-06T03:25:33.172Z,14.17
2019-05-06T03:28:04.414Z,16.97
2019-05-06T03:30:36.162Z,11.83
2019-05-06T03:33:40.352Z,15.13
2019-05-06T03:35:52.270Z,11.90
2019-05-06T03:38:13.538Z,10.80
2019-05-06T03:40:45.877Z,18.67
2019-05-06T03:43:16.122Z,16.27
2019-05-06T03:46:14.840Z,19.13
2019-05-06T03:48:46.836Z,10.07
2019-05-06T03:51:18.550Z,15.10
2019-05-06T03:53:48.848Z,17.60
2019-05-06T03:56:21.087Z,19.30
2019-05-06T03:58:53.841Z,17.03
2019-05-06T04:01:24.288Z,14.87
2019-05-06T04:03:57.221Z,14.77
2019-05-06T04:06:27.486Z,17.20
2019-05-06T04:08:58.768Z,15.23
2019-05-06T04:11:29.690Z,18.77
2019-05-06T04:14:02.785Z,15.63
2019-05-06T04:16:53.261Z,15.83
2019-05-06T04:19:37.913Z,13.83
2019-05-06T04:22:23.388Z,19.73
2019-05-06T04:25:07.137Z,13.10
2019-05-06T04:27:49.059Z,18.10
2019-05-06T04:30:20.473Z,16.27
2019-05-06T04:32:53.187Z,19.10
2019-05-06T04:35:24.403Z,13.77
2019-05-06T04:37:54.478Z,16.27
2019-05-06T04:40:25.269Z,19.57
2019-05-06T04:42:56.048Z,17.23
2019-05-06T04:45:26.054Z,11.83
2019-05-06T04:47:56.573Z,11.93
2019-05-06T04:50:26.756Z,17.33
2019-05-06T04:53:06.292Z,19.00
2019-05-06T04:55:37.174Z,22.20
2019-05-06T04:58:07.900Z,15.37
2019-05-06T05:00:38.812Z,14.27
2019-05-06T05:03:09.014Z,13.17
2019-05-06T05:05:39.068Z,16.40
2019-05-06T05:08:09.060Z,11.37
2019-05-06T05:10:58.015Z,16.20
2019-05-06T05:13:43.330Z,12.20
2019-05-06T05:16:33.170Z,10.97
2019-05-06T05:19:08.092Z,12.20
2019-05-06T05:21:39.973Z,13.20
2019-05-06T05:24:11.937Z,12.90
2019-05-06T05:26:45.084Z,11.27
2019-05-06T05:29:14.672Z,16.70
2019-05-06T05:31:45.193Z,12.07
2019-05-06T05:34:15.513Z,12.87
2019-05-06T05:36:45.514Z,14.17
2019-05-06T05:39:16.467Z,13.87
2019-05-06T05:41:52.124Z,10.63
2019-05-06T05:44:32.347Z,11.17
2019-05-06T05:47:03.471Z,11.40
2019-05-06T05:49:50.445Z,13.67
2019-05-06T05:52:22.241Z,15.60
2019-05-06T05:54:55.629Z,12.23
2019-05-06T05:57:25.718Z,16.80
2019-05-06T05:59:58.384Z,11.77
2019-05-06T06:02:27.870Z,12.03
2019-05-06T06:04:57.941Z,13.73
2019-05-06T06:07:28.957Z,10.10
2019-05-06T06:10:12.863Z,7.83
2019-05-06T06:12:42.971Z,13.87
2019-05-06T06:15:34.206Z,8.90
2019-05-06T06:18:29.461Z,11.53
2019-05-06T06:21:27.856Z,11.67
2019-05-06T06:23:58.113Z,13.07
2019-05-06T06:26:28.392Z,13.00
2019-05-06T06:28:58.410Z,9.00
2019-05-06T06:31:47.830Z,9.47
2019-05-06T06:34:23.498Z,14.03
2019-05-06T06:37:13.251Z,13.00
2019-05-06T06:39:45.188Z,8.90
2019-05-06T06:42:15.625Z,11.03
2019-05-06T06:44:45.851Z,14.23
2019-05-06T06:47:15.825Z,9.70
2019-05-06T06:49:47.040Z,9.67
2019-05-06T06:52:17.871Z,9.97
2019-05-06T06:54:48.237Z,10.37
2019-05-06T06:57:37.608Z,8.60
2019-05-06T07:00:33.144Z,7.33
2019-05-06T07:03:07.191Z,12.30
2019-05-06T07:06:06.901Z,8.23
2019-05-06T07:08:38.832Z,12.57
2019-05-06T07:11:08.775Z,9.73
2019-05-06T07:13:43.861Z,9.73
2019-05-06T07:16:13.846Z,11.33
2019-05-06T07:18:43.832Z,11.03
2019-05-06T07:21:23.249Z,7.83
2019-05-06T07:23:53.149Z,6.20
2019-05-06T07:26:25.815Z,6.00
2019-05-06T07:29:03.263Z,5.13
2019-05-06T07:31:32.971Z,8.57
2019-05-06T07:34:02.698Z,7.20
2019-05-06T07:36:33.635Z,12.67
2019-05-06T07:39:04.446Z,10.03
2019-05-06T07:41:43.563Z,9.47
2019-05-06T07:44:35.540Z,14.87
2019-05-06T07:47:15.802Z,10.70
2019-05-06T07:49:45.800Z,11.83
2019-05-06T07:52:17.880Z,12.33
2019-05-06T07:54:47.992Z,12.83
2019-05-06T07:57:17.999Z,14.13
2019-05-06T07:59:48.973Z,9.93
2019-05-06T08:02:22.795Z,10.50
2019-05-06T08:04:53.152Z,11.33
2019-05-06T08:07:23.466Z,10.27
2019-05-06T08:09:54.230Z,11.40
2019-05-06T08:12:24.322Z,6.47
2019-05-06T08:14:54.600Z,13.27
2019-05-06T08:17:29.816Z,9.67
2019-05-06T08:20:02.318Z,10.17
2019-05-06T08:23:03.262Z,5.63
2019-05-06T08:25:45.317Z,9.83
2019-05-06T08:28:15.847Z,8.17
2019-05-06T08:30:45.855Z,9.13
2019-05-06T08:33:15.834Z,10.27
2019-05-06T08:35:47.133Z,6.57
2019-05-06T08:38:17.352Z,8.47
2019-05-06T08:40:47.469Z,11.00
2019-05-06T08:43:17.757Z,10.77
2019-05-06T08:45:48.156Z,7.53
2019-05-06T08:48:18.451Z,5.00
2019-05-06T08:50:55.237Z,7.03
2019-05-06T08:53:32.814Z,8.20
2019-05-06T08:56:03.331Z,7.37
2019-05-06T08:58:47.479Z,6.00
2019-05-06T09:01:28.191Z,3.70
2019-05-06T09:04:08.347Z,8.70
2019-05-06T09:06:34.081Z,8.37
2019-05-06T09:09:02.535Z,5.83
2019-05-06T09:11:32.585Z,11.47
2019-05-06T09:14:05.095Z,6.67
2019-05-06T09:16:38.922Z,5.23
2019-05-06T09:19:08.802Z,6.23
2019-05-06T09:21:45.812Z,5.30
2019-05-06T09:24:13.458Z,9.80
2019-05-06T09:27:05.554Z,7.30
2019-05-06T09:29:46.137Z,5.30
2019-05-06T09:32:19.514Z,5.73
2019-05-06T09:34:57.574Z,5.90
2019-05-06T09:37:27.954Z,11.40
2019-05-06T09:39:57.962Z,3.90
2019-05-06T09:42:27.792Z,4.30
2019-05-06T09:44:57.990Z,4.57
2019-05-06T09:47:56.140Z,4.87
2019-05-06T09:50:39.492Z,4.03
2019-05-06T09:53:14.144Z,2.43
2019-05-06T09:56:03.339Z,2.70
2019-05-06T09:58:36.371Z,3.33
2019-05-06T10:01:07.261Z,2.23
2019-05-06T10:03:37.619Z,2.37
2019-05-06T10:06:07.778Z,2.40
2019-05-06T10:08:38.085Z,2.57
2019-05-06T10:11:08.657Z,3.77
2019-05-06T10:13:38.471Z,4.33
2019-05-06T10:16:08.417Z,8.70
2019-05-06T10:18:38.854Z,6.97
2019-05-06T10:21:08.770Z,4.33
2019-05-06T10:23:39.043Z,4.37
2019-05-06T10:26:12.803Z,7.27
2019-05-06T10:29:02.421Z,4.47
2019-05-06T10:31:40.337Z,2.97
2019-05-06T10:34:14.053Z,2.23
2019-05-06T10:37:19.339Z,2.97
2019-05-06T10:39:54.379Z,2.80
2019-05-06T10:42:32.491Z,10.27
2019-05-06T10:45:14.134Z,5.20
2019-05-06T10:47:44.101Z,3.37
2019-05-06T10:50:14.984Z,2.80
2019-05-06T10:53:02.944Z,4.37
2019-05-06T10:55:33.239Z,8.80
2019-05-06T10:58:03.624Z,9.13
2019-05-06T11:00:33.834Z,3.20
2019-05-06T11:03:14.969Z,4.73
2019-05-06T11:05:44.027Z,5.47
2019-05-06T11:08:14.505Z,4.33
2019-05-06T11:10:45.812Z,6.07
2019-05-06T11:13:16.361Z,2.97
2019-05-06T11:15:46.841Z,2.73
2019-05-06T11:18:17.092Z,3.20
2019-05-06T11:20:47.835Z,4.63
2019-05-06T11:23:21.871Z,5.63
2019-05-06T11:25:52.644Z,3.93
2019-05-06T11:28:45.168Z,4.37
2019-05-06T11:31:24.944Z,2.00
2019-05-06T11:34:04.883Z,4.40
2019-05-06T11:36:45.845Z,3.73
2019-05-06T11:39:16.198Z,3.87
2019-05-06T11:42:05.341Z,3.70
2019-05-06T11:44:18.276Z,4.03
2019-05-06T11:46:48.314Z,2.57
2019-05-06T11:49:18.390Z,4.87
2019-05-06T11:51:48.676Z,2.47
2019-05-06T11:54:20.749Z,2.17
2019-05-06T11:56:56.210Z,2.63
2019-05-06T11:59:23.931Z,2.40
2019-05-06T12:02:02.757Z,3.80
2019-05-06T12:04:35.081Z,2.57
2019-05-06T12:07:11.187Z,2.20
2019-05-06T12:09:37.804Z,1.63
2019-05-06T12:12:07.887Z,3.63
2019-05-06T12:14:37.818Z,4.80
2019-05-06T12:17:08.291Z,2.83
2019-05-06T12:19:39.227Z,3.67
2019-05-06T12:22:09.340Z,3.80
2019-05-06T12:24:39.214Z,3.20
2019-05-06T12:27:08.921Z,2.23
2019-05-06T12:29:39.258Z,4.33
2019-05-06T12:32:33.574Z,2.87
2019-05-06T12:35:03.690Z,2.43
2019-05-06T12:37:34.677Z,4.00
2019-05-06T12:40:05.424Z,2.60
2019-05-06T12:42:38.768Z,2.73
2019-05-06T12:45:32.900Z,5.20
2019-05-06T12:48:07.200Z,4.90
2019-05-06T12:50:37.693Z,4.33
2019-05-06T12:53:07.846Z,3.27
2019-05-06T12:55:39.666Z,2.70
2019-05-06T12:58:13.548Z,2.80
2019-05-06T13:00:47.652Z,4.07
2019-05-06T13:03:23.291Z,5.10
2019-05-06T13:05:52.786Z,3.37
2019-05-06T13:08:32.468Z,6.90
2019-05-06T13:10:54.999Z,4.27
2019-05-06T13:13:25.023Z,3.67
2019-05-06T13:15:55.299Z,4.50
2019-05-06T13:18:25.972Z,7.87
2019-05-06T13:20:56.674Z,3.03
2019-05-06T13:23:51.794Z,3.93
2019-05-06T13:26:22.367Z,3.93
2019-05-06T13:29:08.102Z,2.20
2019-05-06T13:31:52.978Z,5.50
2019-05-06T13:34:29.581Z,6.40
2019-05-06T13:36:59.624Z,3.03
2019-05-06T13:39:29.776Z,3.67
2019-05-06T13:42:00.133Z,3.47
2019-05-06T13:44:32.063Z,5.20
2019-05-06T13:47:03.163Z,5.97
2019-05-06T13:49:45.380Z,5.40
2019-05-06T13:52:22.968Z,2.87
2019-05-06T13:54:53.098Z,4.10
2019-05-06T13:57:23.469Z,3.97
2019-05-06T13:59:54.640Z,7.30
2019-05-06T14:02:49.885Z,3.07
2019-05-06T14:19:14.512Z,3.70
2019-05-06T14:21:44.617Z,4.10
2019-05-06T14:24:17.389Z,7.73
2019-05-06T14:26:58.087Z,4.67
2019-05-06T14:29:38.328Z,3.57
2019-05-06T14:32:08.660Z,4.50
2019-05-06T14:34:38.659Z,4.27
2019-05-06T14:37:09.340Z,3.30
2019-05-06T14:39:52.789Z,6.00
2019-05-06T14:42:14.534Z,3.93
2019-05-06T14:44:44.470Z,4.77
2019-05-06T14:47:25.774Z,3.13
2019-05-06T14:49:56.360Z,3.37
2019-05-06T14:52:26.981Z,2.63
2019-05-06T14:55:01.816Z,4.00
2019-05-06T14:57:32.357Z,3.93
2019-05-06T15:00:04.309Z,3.97
2019-05-06T15:02:34.481Z,4.40
2019-05-06T15:05:05.775Z,4.00
2019-05-06T15:07:35.718Z,4.90
2019-05-06T15:10:19.206Z,2.80
2019-05-06T15:12:38.275Z,4.30
2019-05-06T15:15:09.045Z,4.37
2019-05-06T15:17:42.408Z,6.50
2019-05-06T15:20:13.315Z,3.57
2019-05-06T15:22:43.243Z,3.53
2019-05-06T15:25:13.299Z,5.43
2019-05-06T15:27:43.660Z,3.23
2019-05-06T15:30:23.032Z,4.33
2019-05-06T15:32:53.357Z,3.40
2019-05-06T15:35:41.837Z,3.83
2019-05-06T15:38:19.500Z,4.33
2019-05-06T15:40:52.250Z,3.87
2019-05-06T15:43:22.073Z,7.90
2019-05-06T15:45:53.005Z,4.27
2019-05-06T15:48:23.498Z,5.07
2019-05-06T15:50:54.411Z,5.00
2019-05-06T15:53:24.427Z,3.33
2019-05-06T15:55:54.274Z,5.53
2019-05-06T15:58:24.137Z,3.73
2019-05-06T16:00:54.870Z,5.40
2019-05-06T16:03:25.823Z,14.80
2019-05-06T16:05:56.148Z,7.43
2019-05-06T16:08:26.033Z,6.70
2019-05-06T16:10:58.813Z,5.37
2019-05-06T16:13:29.311Z,7.10
2019-05-06T16:15:59.235Z,3.77
2019-05-06T16:18:29.258Z,5.37
2019-05-06T16:20:59.074Z,9.47
2019-05-06T16:23:43.420Z,4.67
2019-05-06T16:26:13.395Z,4.43
2019-05-06T16:28:44.924Z,6.47
2019-05-06T16:31:15.240Z,3.23
2019-05-06T16:33:46.081Z,4.70
2019-05-06T16:36:16.025Z,7.00
2019-05-06T16:38:46.571Z,4.17
2019-05-06T16:41:16.492Z,4.40
2019-05-06T16:43:46.287Z,3.10
2019-05-06T16:46:16.191Z,4.23
2019-05-06T16:48:47.017Z,3.87
2019-05-06T16:51:17.537Z,3.20
2019-05-06T16:53:49.147Z,6.47
2019-05-06T16:56:37.822Z,4.30
2019-05-06T16:59:08.247Z,4.23
2019-05-06T17:01:42.879Z,3.20
2019-05-06T17:04:41.894Z,5.47
2019-05-06T17:07:13.464Z,7.53
2019-05-06T17:09:43.245Z,3.43
2019-05-06T17:12:13.242Z,2.90
2019-05-06T17:14:44.029Z,3.80
2019-05-06T17:17:14.575Z,4.47
2019-05-06T17:19:45.057Z,3.17
2019-05-06T17:22:15.546Z,5.07
2019-05-06T17:24:48.470Z,5.37
2019-05-06T17:27:19.487Z,4.47
2019-05-06T17:29:57.262Z,2.83
2019-05-06T17:32:38.759Z,4.87
2019-05-06T17:35:09.523Z,2.83
2019-05-06T17:37:52.800Z,3.97
2019-05-06T17:40:23.375Z,3.30
2019-05-06T17:42:54.012Z,4.10
2019-05-06T17:45:43.031Z,7.70
2019-05-06T17:48:28.663Z,6.00
2019-05-06T17:51:19.262Z,5.33
2019-05-06T17:53:53.203Z,3.87
2019-05-06T17:56:23.875Z,5.13
2019-05-06T17:58:53.987Z,11.23
2019-05-06T18:01:32.409Z,4.07
2019-05-06T18:04:02.363Z,3.50
2019-05-06T18:06:33.600Z,7.60
2019-05-06T18:09:05.173Z,4.87
2019-05-06T18:11:35.462Z,4.17
2019-05-06T18:14:05.820Z,4.27
2019-05-06T18:16:38.957Z,7.03
2019-05-06T18:19:09.438Z,7.53
2019-05-06T18:21:41.894Z,5.53
2019-05-06T18:24:12.909Z,5.27
2019-05-06T18:26:43.620Z,5.03
2019-05-06T18:29:13.957Z,5.30
2019-05-06T18:31:44.230Z,7.53
2019-05-06T18:34:14.690Z,5.50
2019-05-06T18:36:44.890Z,5.20
2019-05-06T18:39:16.044Z,4.60
2019-05-06T18:41:46.445Z,4.80
2019-05-06T18:44:16.998Z,4.93
2019-05-06T18:46:47.408Z,4.13
2019-05-06T18:49:18.586Z,4.57
2019-05-06T18:51:51.393Z,5.93
2019-05-06T18:54:22.086Z,5.30
2019-05-06T18:56:52.583Z,4.87
2019-05-06T18:59:23.263Z,5.10
2019-05-06T19:01:54.016Z,4.70
2019-05-06T19:04:33.687Z,9.13
2019-05-06T19:07:12.429Z,4.63
2019-05-06T19:09:48.986Z,8.27
2019-05-06T19:12:30.118Z,5.60
2019-05-06T19:14:52.989Z,5.70
2019-05-06T19:17:23.546Z,5.87
2019-05-06T19:19:53.849Z,8.43
2019-05-06T19:22:24.697Z,7.10
2019-05-06T19:24:55.743Z,8.17
2019-05-06T19:27:29.065Z,7.17
2019-05-06T19:30:02.454Z,6.67
2019-05-06T19:32:35.262Z,8.77
2019-05-06T19:35:06.076Z,10.63
2019-05-06T19:37:36.835Z,6.20
2019-05-06T19:40:07.430Z,7.80
2019-05-06T19:42:46.959Z,7.93
2019-05-06T19:45:12.994Z,6.40
2019-05-06T19:47:44.230Z,12.20
2019-05-06T19:50:15.915Z,6.80
2019-05-06T19:52:46.322Z,6.87
2019-05-06T19:55:17.609Z,6.33
2019-05-06T19:57:48.485Z,7.97
2019-05-06T20:00:20.367Z,7.50
2019-05-06T20:02:52.232Z,10.40
2019-05-06T20:05:41.435Z,7.57
2019-05-06T20:11:34.545Z,6.60
2019-05-06T20:14:04.950Z,6.53
2019-05-06T20:16:37.442Z,9.90
2019-05-06T20:19:36.255Z,7.77
2019-05-06T20:25:51.965Z,8.20
2019-05-06T20:28:34.994Z,8.57
2019-05-06T20:31:37.714Z,7.40
2019-05-06T20:34:07.847Z,9.10
2019-05-06T20:36:43.008Z,7.20
2019-05-06T20:39:13.218Z,9.47
2019-05-06T20:41:43.162Z,7.27
2019-05-06T20:44:13.691Z,7.47
2019-05-06T20:46:43.773Z,7.27
2019-05-06T20:49:13.855Z,12.80
2019-05-06T20:51:43.767Z,7.67
2019-05-06T20:54:13.700Z,9.00
2019-05-06T20:56:44.739Z,8.30
2019-05-06T20:59:15.283Z,12.30
2019-05-06T21:01:45.310Z,11.03
2019-05-06T21:04:15.575Z,8.63
2019-05-06T21:06:45.546Z,13.00
2019-05-06T21:09:16.247Z,9.17
2019-05-06T21:11:46.233Z,9.27
2019-05-06T21:14:17.224Z,11.20
2019-05-06T21:16:48.408Z,10.33
2019-05-06T21:19:18.314Z,10.50
2019-05-06T21:21:48.390Z,11.37
2019-05-06T21:24:18.430Z,11.27
2019-05-06T21:26:48.882Z,11.93
2019-05-06T21:29:19.738Z,12.90
2019-05-06T21:31:49.674Z,11.27
2019-05-06T21:34:19.650Z,10.20
2019-05-06T21:36:49.595Z,13.00
2019-05-06T21:39:19.672Z,13.20
2019-05-06T21:41:51.991Z,13.63
2019-05-06T21:44:22.830Z,15.20
2019-05-06T21:46:54.017Z,14.10
2019-05-06T21:49:24.025Z,14.10
2019-05-06T21:51:53.942Z,12.33
2019-05-06T21:54:24.217Z,12.87
2019-05-06T21:56:55.321Z,13.40
2019-05-06T21:59:25.183Z,16.63
2019-05-06T22:02:23.069Z,16.17
2019-05-06T22:04:55.605Z,15.23
2019-05-06T22:07:25.038Z,13.70
2019-05-06T22:09:55.353Z,18.17
2019-05-06T22:12:25.731Z,11.70
2019-05-06T22:14:55.979Z,12.70
2019-05-06T22:17:26.677Z,13.40
2019-05-06T22:19:57.201Z,13.10
2019-05-06T22:22:28.665Z,14.97
2019-05-06T22:24:58.936Z,12.10
2019-05-06T22:27:30.177Z,14.07
2019-05-06T22:30:00.206Z,13.97
2019-05-06T22:32:33.052Z,13.40
2019-05-06T22:35:04.684Z,15.07
2019-05-06T22:37:36.607Z,17.13
2019-05-06T22:40:08.061Z,15.53
2019-05-06T22:42:37.856Z,13.53
2019-05-06T22:45:08.410Z,14.07
2019-05-06T22:47:38.680Z,14.77
2019-05-06T22:50:12.887Z,14.30
2019-05-06T22:52:42.388Z,14.80
2019-05-06T22:55:13.178Z,16.57
2019-05-06T22:57:43.048Z,18.70
2019-05-06T23:00:18.852Z,15.80
2019-05-06T23:03:02.313Z,15.00
2019-05-06T23:05:32.692Z,15.47
2019-05-06T23:08:02.855Z,15.80
2019-05-06T23:10:33.662Z,14.07
2019-05-06T23:13:03.933Z,12.83
2019-05-06T23:15:34.739Z,17.03
2019-05-06T23:18:05.300Z,14.23
2019-05-06T23:20:35.126Z,15.93
2019-05-06T23:23:05.131Z,14.30
2019-05-06T23:25:35.256Z,14.30
2019-05-06T23:28:05.828Z,12.53
2019-05-06T23:30:35.850Z,12.37
2019-05-06T23:33:05.837Z,11.53
2019-05-06T23:35:35.675Z,11.20
2019-05-06T23:38:43.016Z,11.23
2019-05-06T23:41:48.768Z,11.67
2019-05-06T23:44:54.683Z,13.63
2019-05-06T23:48:02.410Z,9.77
2019-05-06T23:51:07.913Z,11.90
2019-05-06T23:54:13.122Z,8.87
2019-05-06T23:56:43.744Z,9.07
2019-05-06T23:59:16.204Z,9.50
